Time;durP1;ratioP1;P1;durP2;ratioP2;P2;SDS_P1;SDS_P2;PMS_P1;PMS_P2;Temp;Humidity;BMP_temperature;BMP_pressure;BME280_temperature;BME280_humidity;BME280_pressure;Samples;Min_cycle;Max_cycle;Signal;HPM_P1;HPM_P2
2020/12/27 00:02:26;;;;;;;21.95;11.18;;;-1.60;99.90;;;;;;4970185;28;20615;-65
2020/12/27 00:04:52;;;;;;;22.75;10.98;;;-1.60;99.90;;;;;;4971273;28;20054;-66
2020/12/27 00:07:19;;;;;;;21.30;11.30;;;-1.60;99.90;;;;;;4970888;28;20051;-66
2020/12/27 00:09:45;;;;;;;19.48;10.52;;;-1.70;99.90;;;;;;4971155;28;20079;-65
2020/12/27 00:12:12;;;;;;;19.35;10.70;;;-1.60;99.90;;;;;;4969636;28;20488;-67
2020/12/27 00:14:40;;;;;;;18.75;9.90;;;-1.60;99.90;;;;;;4970630;28;20066;-65
2020/12/27 00:17:09;;;;;;;25.73;10.82;;;-1.60;99.90;;;;;;4964339;28;20063;-68
2020/12/27 00:19:36;;;;;;;22.00;10.80;;;-1.70;99.90;;;;;;4970003;28;20054;-65
2020/12/27 00:22:03;;;;;;;23.40;11.50;;;-1.70;99.90;;;;;;4953778;28;20428;-65
2020/12/27 00:24:31;;;;;;;25.60;12.13;;;-1.70;99.90;;;;;;4970710;28;20130;-65
2020/12/27 00:26:57;;;;;;;18.92;9.63;;;-1.60;99.90;;;;;;4970803;28;20084;-66
2020/12/27 00:29:24;;;;;;;18.67;9.73;;;-1.60;99.90;;;;;;4969614;28;20146;-66
2020/12/27 00:31:55;;;;;;;20.90;10.05;;;-1.60;99.90;;;;;;4970022;28;20054;-66
2020/12/27 00:34:23;;;;;;;19.52;10.15;;;-1.60;99.90;;;;;;4958133;28;20146;-65
2020/12/27 00:36:54;;;;;;;20.25;9.90;;;-1.60;99.90;;;;;;4970573;28;20058;-65
2020/12/27 00:39:21;;;;;;;16.98;9.93;;;-1.70;99.90;;;;;;4969937;28;20482;-68
2020/12/27 00:41:48;;;;;;;18.58;10.25;;;-1.60;99.90;;;;;;4968688;28;20134;-69
2020/12/27 00:44:19;;;;;;;17.35;9.45;;;-1.70;99.90;;;;;;4969679;28;20431;-69
2020/12/27 00:46:49;;;;;;;21.08;10.40;;;-1.70;99.90;;;;;;4952636;28;20042;-69
2020/12/27 00:49:21;;;;;;;19.67;9.13;;;-1.70;99.90;;;;;;4970292;28;20059;-69
2020/12/27 00:51:50;;;;;;;17.80;9.57;;;-1.70;99.90;;;;;;4966303;28;20133;-70
2020/12/27 00:54:21;;;;;;;18.23;9.30;;;-1.70;99.90;;;;;;4969783;28;20065;-71
2020/12/27 00:56:51;;;;;;;16.48;9.57;;;-1.70;99.90;;;;;;4965025;28;20162;-70
2020/12/27 00:59:18;;;;;;;19.15;10.07;;;-1.80;99.90;;;;;;4969177;28;20059;-70
2020/12/27 01:01:45;;;;;;;18.23;9.55;;;-1.80;99.90;;;;;;4968323;28;20463;-69
2020/12/27 01:04:11;;;;;;;20.05;11.10;;;-1.90;99.90;;;;;;4969483;28;20058;-70
2020/12/27 01:06:38;;;;;;;20.90;9.65;;;-1.80;99.90;;;;;;4961999;28;20043;-69
2020/12/27 01:09:05;;;;;;;13.68;8.10;;;-1.80;99.90;;;;;;4969944;28;20472;-69
2020/12/27 01:11:32;;;;;;;18.42;9.05;;;-1.80;99.90;;;;;;4967762;28;20213;-68
2020/12/27 01:13:59;;;;;;;15.43;8.98;;;-1.80;99.90;;;;;;4965819;28;20046;-69
2020/12/27 01:16:25;;;;;;;18.15;8.95;;;-1.80;99.90;;;;;;4969554;28;20772;-67
2020/12/27 01:18:52;;;;;;;16.63;8.68;;;-1.80;99.90;;;;;;4970116;28;20053;-68
2020/12/27 01:21:23;;;;;;;17.88;9.32;;;-1.80;99.90;;;;;;4969657;28;20512;-69
2020/12/27 01:23:49;;;;;;;19.90;9.40;;;-1.80;99.90;;;;;;4968472;28;20463;-67
2020/12/27 01:26:16;;;;;;;17.95;9.13;;;-1.80;99.90;;;;;;4969787;28;20051;-68
2020/12/27 01:28:42;;;;;;;15.48;8.65;;;-1.90;99.90;;;;;;4951672;28;20092;-67
2020/12/27 01:31:19;;;;;;;15.77;8.63;;;-1.90;99.90;;;;;;4952912;28;20051;-68
2020/12/27 01:33:46;;;;;;;16.08;8.60;;;-1.90;99.90;;;;;;4960437;28;20114;-69
2020/12/27 01:36:13;;;;;;;19.65;9.35;;;-1.90;99.90;;;;;;4968804;28;20082;-68
2020/12/27 01:38:39;;;;;;;17.83;8.27;;;-2.00;99.90;;;;;;4950498;28;20054;-70
2020/12/27 01:41:06;;;;;;;16.80;8.27;;;-2.00;99.90;;;;;;4970301;28;20148;-69
2020/12/27 01:43:32;;;;;;;17.08;8.77;;;-2.00;99.90;;;;;;4968388;28;20039;-69
2020/12/27 01:45:59;;;;;;;14.23;8.73;;;-2.00;99.90;;;;;;4971602;28;20057;-69
2020/12/27 01:48:26;;;;;;;21.75;8.40;;;-2.00;99.90;;;;;;4971475;28;20516;-69
2020/12/27 01:50:53;;;;;;;19.95;8.75;;;-2.00;99.90;;;;;;4971285;28;20521;-69
2020/12/27 01:53:19;;;;;;;14.00;7.85;;;-2.00;99.90;;;;;;4972653;28;20496;-69
2020/12/27 01:55:46;;;;;;;14.95;8.45;;;-2.00;99.90;;;;;;4972216;28;20511;-69
2020/12/27 01:58:20;;;;;;;14.85;7.97;;;-2.10;99.90;;;;;;4972485;28;20202;-69
2020/12/27 02:00:47;;;;;;;17.88;7.75;;;-2.00;99.90;;;;;;4968220;28;20077;-69
2020/12/27 02:03:14;;;;;;;16.83;8.45;;;-2.00;99.90;;;;;;4954402;28;20133;-70
2020/12/27 02:05:51;;;;;;;14.60;7.70;;;-2.10;99.90;;;;;;4969861;28;20047;-69
2020/12/27 02:08:19;;;;;;;16.27;8.02;;;-2.10;99.90;;;;;;4962573;28;20135;-69
2020/12/27 02:10:49;;;;;;;16.67;8.23;;;-2.10;99.90;;;;;;4969556;28;20046;-69
2020/12/27 02:13:16;;;;;;;15.63;8.07;;;-2.10;99.90;;;;;;4963882;28;20063;-68
2020/12/27 02:15:43;;;;;;;14.23;7.50;;;-2.00;99.90;;;;;;4939039;28;20051;-68
2020/12/27 02:18:09;;;;;;;16.30;7.75;;;-2.00;99.90;;;;;;4955242;28;20058;-71
2020/12/27 02:20:37;;;;;;;15.48;8.05;;;-2.00;99.90;;;;;;4959121;28;20047;-68
2020/12/27 02:23:05;;;;;;;13.13;7.25;;;-2.10;99.90;;;;;;4966659;28;20051;-68
2020/12/27 02:25:31;;;;;;;17.13;8.07;;;-2.10;99.90;;;;;;4965221;28;20065;-70
2020/12/27 02:27:58;;;;;;;16.17;8.23;;;-2.10;99.90;;;;;;4972045;28;20462;-71
2020/12/27 02:30:24;;;;;;;14.05;7.38;;;-2.10;99.90;;;;;;4971734;28;20482;-70
2020/12/27 02:32:51;;;;;;;15.98;8.38;;;-2.10;99.90;;;;;;4957255;28;20061;-70
2020/12/27 02:35:17;;;;;;;15.32;7.18;;;-2.10;99.90;;;;;;4961930;28;20082;-71
2020/12/27 02:37:48;;;;;;;17.00;8.48;;;-2.20;99.90;;;;;;4942858;28;20051;-69
2020/12/27 02:40:16;;;;;;;11.82;7.40;;;-2.20;99.90;;;;;;4960726;28;20133;-70
2020/12/27 02:42:42;;;;;;;13.60;7.65;;;-2.20;99.90;;;;;;4971946;28;20054;-70
2020/12/27 02:45:12;;;;;;;21.17;9.57;;;-2.20;99.90;;;;;;4954866;28;20087;-68
2020/12/27 02:47:40;;;;;;;17.70;7.93;;;-2.20;99.90;;;;;;4971615;28;20047;-68
2020/12/27 02:50:11;;;;;;;12.55;7.20;;;-2.20;99.90;;;;;;4971904;28;20540;-69
2020/12/27 02:52:38;;;;;;;14.35;7.70;;;-2.20;99.90;;;;;;4971151;28;20050;-68
2020/12/27 02:55:06;;;;;;;15.23;7.35;;;-2.20;99.90;;;;;;4971566;28;20046;-68
2020/12/27 02:57:33;;;;;;;17.52;7.30;;;-2.20;99.90;;;;;;4971775;28;20454;-69
2020/12/27 02:59:59;;;;;;;12.30;7.25;;;-2.20;99.90;;;;;;4970672;28;20047;-69
2020/12/27 03:02:26;;;;;;;14.20;7.65;;;-2.10;99.90;;;;;;4970385;28;20517;-67
2020/12/27 03:04:52;;;;;;;12.43;7.13;;;-2.10;99.90;;;;;;4971558;28;20051;-69
2020/12/27 03:07:19;;;;;;;14.82;7.97;;;-2.20;99.90;;;;;;4970314;28;20039;-67
2020/12/27 03:09:45;;;;;;;14.18;7.57;;;-2.10;99.90;;;;;;4974956;28;20046;-67
2020/12/27 03:12:12;;;;;;;13.07;7.32;;;-2.10;99.90;;;;;;4975187;28;20110;-68
2020/12/27 03:14:39;;;;;;;11.95;6.47;;;-2.10;99.90;;;;;;4955106;29;20047;-69
2020/12/27 03:17:05;;;;;;;12.10;7.28;;;-2.20;99.90;;;;;;4969379;28;20058;-69
2020/12/27 03:19:32;;;;;;;11.82;7.00;;;-2.30;99.90;;;;;;4956851;28;20058;-68
2020/12/27 03:21:58;;;;;;;12.45;7.07;;;-2.30;99.90;;;;;;4975484;28;20098;-70
2020/12/27 03:24:25;;;;;;;13.65;6.60;;;-2.30;99.90;;;;;;4973548;28;20501;-68
2020/12/27 03:26:52;;;;;;;13.18;7.70;;;-2.30;99.90;;;;;;4974188;28;20054;-68
2020/12/27 03:29:18;;;;;;;12.30;7.00;;;-2.30;99.90;;;;;;4973671;28;20047;-69
2020/12/27 03:31:45;;;;;;;13.20;7.15;;;-2.30;99.90;;;;;;4975147;28;20058;-70
2020/12/27 03:34:12;;;;;;;13.93;6.97;;;-2.30;99.90;;;;;;4974762;28;20061;-69
2020/12/27 03:36:44;;;;;;;12.02;7.47;;;-2.30;99.90;;;;;;4971762;28;20130;-69
2020/12/27 03:39:11;;;;;;;13.02;7.20;;;-2.30;99.90;;;;;;4957003;28;20063;-68
2020/12/27 03:41:38;;;;;;;12.75;7.15;;;-2.30;99.90;;;;;;4972082;28;20047;-69
2020/12/27 03:44:04;;;;;;;14.48;7.30;;;-2.30;99.90;;;;;;4973337;28;20043;-69
2020/12/27 03:46:31;;;;;;;13.93;7.35;;;-2.30;99.90;;;;;;4974249;28;20051;-68
2020/12/27 03:48:57;;;;;;;11.75;7.05;;;-2.30;99.90;;;;;;4960609;28;20043;-69
2020/12/27 03:51:24;;;;;;;11.43;6.75;;;-2.30;99.90;;;;;;4957140;28;20086;-69
2020/12/27 03:53:50;;;;;;;20.95;7.55;;;-2.30;99.90;;;;;;4973351;28;20054;-69
2020/12/27 03:56:21;;;;;;;10.55;6.70;;;-2.30;99.90;;;;;;4974645;28;20059;-69
2020/12/27 03:58:47;;;;;;;13.30;7.35;;;-2.30;99.90;;;;;;4970719;28;20046;-68
2020/12/27 04:01:14;;;;;;;11.88;7.38;;;-2.30;99.90;;;;;;4956496;28;20493;-68
2020/12/27 04:03:40;;;;;;;15.68;6.85;;;-2.20;99.90;;;;;;4956081;28;20420;-70
2020/12/27 04:06:07;;;;;;;13.43;7.10;;;-2.20;99.90;;;;;;4974467;28;20051;-68
2020/12/27 04:08:33;;;;;;;13.48;7.32;;;-2.20;99.90;;;;;;4974318;28;20061;-69
2020/12/27 04:11:00;;;;;;;13.95;7.30;;;-2.20;99.90;;;;;;4957034;28;20047;-69
2020/12/27 04:13:28;;;;;;;12.57;7.13;;;-2.30;99.90;;;;;;4973662;28;20122;-68
2020/12/27 04:15:54;;;;;;;14.90;7.35;;;-2.30;99.90;;;;;;4972935;28;20144;-68
2020/12/27 04:18:21;;;;;;;11.27;7.00;;;-2.30;99.90;;;;;;4974339;28;20584;-68
2020/12/27 04:20:47;;;;;;;12.85;7.28;;;-2.30;99.90;;;;;;4970672;28;20499;-67
2020/12/27 04:23:14;;;;;;;12.45;7.03;;;-2.30;99.90;;;;;;4972847;28;20180;-69
2020/12/27 04:25:40;;;;;;;14.55;7.72;;;-2.30;99.90;;;;;;4971795;28;20070;-69
2020/12/27 04:28:07;;;;;;;14.02;7.45;;;-2.40;99.90;;;;;;4973171;28;20054;-68
2020/12/27 04:30:33;;;;;;;11.82;7.40;;;-2.30;99.90;;;;;;4972451;28;20060;-69
2020/12/27 04:32:59;;;;;;;12.93;7.22;;;-2.30;99.90;;;;;;4973364;28;20078;-69
2020/12/27 04:35:26;;;;;;;12.45;7.53;;;-2.30;99.90;;;;;;4972162;28;20054;-68
2020/12/27 04:37:52;;;;;;;16.98;8.30;;;-2.30;99.90;;;;;;4973881;28;20065;-68
2020/12/27 04:40:19;;;;;;;12.75;7.28;;;-2.30;99.90;;;;;;4972687;28;20069;-68
2020/12/27 04:42:50;;;;;;;11.88;7.50;;;-2.30;99.90;;;;;;4973755;28;20129;-69
2020/12/27 04:45:18;;;;;;;16.52;8.02;;;-2.30;99.90;;;;;;4960180;28;20053;-71
2020/12/27 04:47:46;;;;;;;14.25;7.07;;;-2.30;99.90;;;;;;4972034;28;20086;-70
2020/12/27 04:50:16;;;;;;;13.57;7.70;;;-2.30;99.90;;;;;;4972713;28;20054;-69
2020/12/27 04:52:43;;;;;;;14.65;7.43;;;-2.30;99.90;;;;;;4973867;28;20065;-70
2020/12/27 04:55:09;;;;;;;14.52;7.43;;;-2.30;99.90;;;;;;4973749;28;20042;-70
2020/12/27 04:57:39;;;;;;;12.75;7.75;;;-2.30;99.90;;;;;;4952451;28;20153;-70
2020/12/27 05:00:06;;;;;;;13.35;7.75;;;-2.30;99.90;;;;;;4955231;28;20038;-69
2020/12/27 05:02:33;;;;;;;14.27;7.03;;;-2.30;99.90;;;;;;4965622;28;20477;-68
2020/12/27 05:05:01;;;;;;;13.07;7.57;;;-2.20;99.90;;;;;;4965766;28;20042;-69
2020/12/27 05:07:43;;;;;;;10.25;6.00;;;-2.20;99.90;;;;;;4956744;28;20055;-69
2020/12/27 05:10:10;;;;;;;12.13;7.20;;;-2.20;99.90;;;;;;4973499;28;20653;-69
2020/12/27 05:12:37;;;;;;;11.75;7.47;;;-2.20;99.90;;;;;;4972261;28;20085;-70
2020/12/27 05:15:06;;;;;;;13.93;7.68;;;-2.20;99.90;;;;;;4972767;28;20585;-70
2020/12/27 05:17:32;;;;;;;13.43;7.72;;;-2.20;99.90;;;;;;4972804;28;20051;-70
2020/12/27 05:20:12;;;;;;;11.73;7.47;;;-2.30;99.90;;;;;;4973112;28;20481;-72
2020/12/27 05:22:39;;;;;;;14.80;7.75;;;-2.20;99.90;;;;;;4972027;28;20042;-70
2020/12/27 05:25:06;;;;;;;15.02;7.70;;;-2.20;99.90;;;;;;4955165;28;20062;-67
2020/12/27 05:27:40;;;;;;;12.27;7.60;;;-2.20;99.90;;;;;;4972471;28;20061;-70
2020/12/27 05:30:06;;;;;;;15.00;6.80;;;-2.20;99.90;;;;;;4972680;28;20057;-70
2020/12/27 05:32:33;;;;;;;12.88;7.68;;;-2.20;99.90;;;;;;4972410;28;20051;-70
2020/12/27 05:35:00;;;;;;;11.50;7.10;;;-2.20;99.90;;;;;;4972543;28;20055;-70
2020/12/27 05:37:27;;;;;;;12.98;7.72;;;-2.20;99.90;;;;;;4971814;28;20493;-71
2020/12/27 05:39:53;;;;;;;14.73;7.30;;;-2.20;99.90;;;;;;4955428;28;20507;-70
2020/12/27 05:42:25;;;;;;;12.10;7.55;;;-2.20;99.90;;;;;;4963566;28;20051;-68
2020/12/27 05:44:54;;;;;;;12.48;7.05;;;-2.20;99.90;;;;;;4958670;28;20046;-69
2020/12/27 05:47:21;;;;;;;10.98;6.65;;;-2.20;99.90;;;;;;4953466;28;20398;-68
2020/12/27 05:49:48;;;;;;;14.82;7.53;;;-2.20;99.90;;;;;;4953678;29;20051;-69
2020/12/27 05:52:17;;;;;;;12.77;7.70;;;-2.20;99.90;;;;;;4966034;28;20054;-68
2020/12/27 05:54:47;;;;;;;11.82;7.65;;;-2.20;99.90;;;;;;4971992;28;20056;-68
2020/12/27 05:57:15;;;;;;;13.17;7.80;;;-2.20;99.90;;;;;;4971365;28;20050;-69
2020/12/27 05:59:45;;;;;;;12.38;7.95;;;-2.20;99.90;;;;;;4971710;28;20384;-70
2020/12/27 06:02:32;;;;;;;12.57;7.25;;;-2.30;99.90;;;;;;4970068;28;20050;-70
2020/12/27 06:05:15;;;;;;;12.90;8.00;;;-2.20;99.90;;;;;;4941983;28;20054;-69
2020/12/27 06:07:43;;;;;;;12.70;7.85;;;-2.30;99.90;;;;;;4972434;28;20046;-69
2020/12/27 06:10:18;;;;;;;12.30;7.50;;;-2.20;99.90;;;;;;4971230;28;20055;-69
2020/12/27 06:12:48;;;;;;;15.07;7.25;;;-2.30;99.90;;;;;;4966852;28;20501;-69
2020/12/27 06:15:29;;;;;;;13.55;8.20;;;-2.20;99.90;;;;;;4971618;28;20057;-67
2020/12/27 06:18:11;;;;;;;12.65;7.82;;;-2.20;99.90;;;;;;4954548;28;20050;-69
2020/12/27 06:20:39;;;;;;;;;;;-2.20;99.90;;;;;;4971084;28;20062;-68
2020/12/27 06:23:07;;;;;;;15.27;7.80;;;-2.20;99.90;;;;;;4963547;28;19937;-69
2020/12/27 06:25:34;;;;;;;14.15;7.80;;;-2.20;99.90;;;;;;4953109;28;20045;-69
2020/12/27 06:28:02;;;;;;;16.05;8.25;;;-2.20;99.90;;;;;;4972122;28;20043;-70
2020/12/27 06:30:42;;;;;;;13.57;7.93;;;-2.20;99.90;;;;;;4970237;28;20051;-71
2020/12/27 06:33:21;;;;;;;12.73;7.88;;;-2.20;99.90;;;;;;4969737;28;20058;-70
2020/12/27 06:35:48;;;;;;;12.75;8.05;;;-2.20;99.90;;;;;;4971922;28;20056;-69
2020/12/27 06:38:21;;;;;;;15.25;7.55;;;-2.20;99.90;;;;;;4971239;28;20059;-70
2020/12/27 06:40:58;;;;;;;11.93;7.63;;;-2.20;99.90;;;;;;4971269;28;20042;-70
2020/12/27 06:43:25;;;;;;;13.07;7.47;;;-2.20;99.90;;;;;;4956127;28;20054;-71
2020/12/27 06:45:52;;;;;;;13.40;7.85;;;-2.20;99.90;;;;;;4961636;28;20441;-70
2020/12/27 06:48:36;;;;;;;13.77;7.50;;;-2.30;99.90;;;;;;4971921;28;20061;-69
2020/12/27 06:51:03;;;;;;;12.20;7.20;;;-2.30;99.90;;;;;;4971759;28;20051;-69
2020/12/27 06:53:45;;;;;;;11.20;7.05;;;-2.30;99.90;;;;;;4970567;28;20050;-69
2020/12/27 06:56:14;;;;;;;11.07;7.00;;;-2.30;99.90;;;;;;4971804;28;20054;-69
2020/12/27 06:58:50;;;;;;;11.48;6.70;;;-2.30;99.90;;;;;;4970263;28;20062;-70
2020/12/27 07:01:20;;;;;;;11.80;6.90;;;-2.30;99.90;;;;;;4962230;28;20054;-69
2020/12/27 07:03:47;;;;;;;12.48;7.43;;;-2.30;99.90;;;;;;4970494;28;20059;-69
2020/12/27 07:06:26;;;;;;;10.10;6.70;;;-2.30;99.90;;;;;;4970490;28;20078;-69
2020/12/27 07:09:01;;;;;;;12.52;5.95;;;-2.30;99.90;;;;;;4967426;28;20066;-70
2020/12/27 07:11:32;;;;;;;9.82;5.85;;;-2.30;99.90;;;;;;4970414;28;20053;-70
2020/12/27 07:14:00;;;;;;;11.02;6.72;;;-2.20;99.90;;;;;;4972271;28;20051;-70
2020/12/27 07:16:35;;;;;;;11.48;6.30;;;-2.20;99.90;;;;;;4971820;28;20069;-70
2020/12/27 07:19:05;;;;;;;11.30;6.75;;;-2.30;99.90;;;;;;4971934;28;20062;-70
2020/12/27 07:21:35;;;;;;;11.88;6.20;;;-2.30;99.90;;;;;;4970072;28;20051;-70
2020/12/27 07:24:05;;;;;;;10.27;5.78;;;-2.20;99.90;;;;;;4969517;28;20130;-70
2020/12/27 07:26:32;;;;;;;9.98;6.72;;;-2.30;99.90;;;;;;4967737;28;20047;-69
2020/12/27 07:29:10;;;;;;;10.70;7.05;;;-2.20;99.90;;;;;;4970530;28;20047;-70
2020/12/27 07:31:39;;;;;;;9.68;5.88;;;-2.20;99.90;;;;;;4960854;28;20082;-70
2020/12/27 07:34:07;;;;;;;9.52;5.75;;;-2.20;99.90;;;;;;4970300;28;20046;-69
2020/12/27 07:36:35;;;;;;;9.88;5.95;;;-2.10;99.90;;;;;;4959177;28;20047;-70
2020/12/27 07:39:17;;;;;;;12.27;6.40;;;-2.10;99.90;;;;;;4970715;28;20058;-70
2020/12/27 07:41:47;;;;;;;11.85;5.95;;;-2.00;99.90;;;;;;4968550;28;20047;-70
2020/12/27 07:44:16;;;;;;;11.98;6.68;;;-2.00;99.90;;;;;;4971071;28;20055;-69
2020/12/27 07:46:44;;;;;;;11.68;6.35;;;-2.00;99.90;;;;;;4953607;28;20053;-70
2020/12/27 07:49:11;;;;;;;9.70;6.20;;;-2.00;99.90;;;;;;4970019;28;20758;-69
2020/12/27 07:51:38;;;;;;;11.88;6.75;;;-2.00;99.90;;;;;;4970699;28;20051;-67
2020/12/27 07:54:05;;;;;;;9.05;5.63;;;-1.90;99.90;;;;;;4970449;28;20058;-69
2020/12/27 07:56:33;;;;;;;8.45;5.85;;;-1.90;99.90;;;;;;4974601;28;20066;-68
2020/12/27 07:59:02;;;;;;;11.18;6.40;;;-1.90;99.90;;;;;;4974290;28;20066;-68
2020/12/27 08:01:28;;;;;;;11.73;6.50;;;-1.80;99.90;;;;;;4967579;28;20050;-67
2020/12/27 08:04:04;;;;;;;10.63;6.00;;;-1.80;99.90;;;;;;4956226;28;20050;-68
2020/12/27 08:06:40;;;;;;;11.85;6.05;;;-1.80;99.90;;;;;;4974869;28;20055;-70
2020/12/27 08:09:11;;;;;;;9.80;5.93;;;-1.70;99.90;;;;;;4957102;28;20509;-69
2020/12/27 08:11:40;;;;;;;9.98;6.97;;;-1.80;99.90;;;;;;4972414;28;20046;-68
2020/12/27 08:14:08;;;;;;;10.80;6.35;;;-1.70;99.90;;;;;;4971255;28;20063;-67
2020/12/27 08:16:42;;;;;;;10.65;6.15;;;-1.70;99.90;;;;;;4956986;28;20058;-68
2020/12/27 08:19:13;;;;;;;10.13;6.03;;;-1.70;99.90;;;;;;4973513;28;20051;-69
2020/12/27 08:21:41;;;;;;;11.05;6.88;;;-1.60;99.90;;;;;;4974197;28;20062;-69
2020/12/27 08:24:17;;;;;;;19.35;11.40;;;-1.60;99.90;;;;;;4970665;28;20553;-67
2020/12/27 08:26:45;;;;;;;10.05;6.55;;;-1.50;99.90;;;;;;4947167;29;20047;-68
2020/12/27 08:29:25;;;;;;;12.93;6.63;;;-1.50;99.90;;;;;;4973851;28;20576;-69
2020/12/27 08:31:55;;;;;;;10.40;5.93;;;-1.50;99.90;;;;;;4973684;28;20375;-69
2020/12/27 08:34:25;;;;;;;11.60;6.65;;;-1.50;99.90;;;;;;4969506;28;20137;-68
2020/12/27 08:36:54;;;;;;;9.75;6.50;;;-1.40;99.90;;;;;;4957346;28;20050;-68
2020/12/27 08:39:36;;;;;;;9.52;6.13;;;-1.50;99.90;;;;;;4970031;28;20416;-68
2020/12/27 08:42:11;;;;;;;9.90;6.40;;;-1.40;99.90;;;;;;4972699;28;20126;-68
2020/12/27 08:45:00;;;;;;;10.50;6.35;;;-1.30;99.90;;;;;;4971818;28;20417;-68
2020/12/27 08:47:44;;;;;;;10.43;6.38;;;-1.30;99.90;;;;;;4974030;28;20059;-67
2020/12/27 08:50:32;;;;;;;12.65;7.60;;;-1.20;99.90;;;;;;4973129;28;20083;-70
2020/12/27 08:53:01;;;;;;;14.63;7.55;;;-1.20;99.90;;;;;;4971626;28;20050;-68
2020/12/27 08:55:29;;;;;;;10.43;5.90;;;-1.10;99.90;;;;;;4954780;28;20413;-67
2020/12/27 08:57:59;;;;;;;9.23;5.60;;;-1.00;99.90;;;;;;4973326;28;20050;-67
2020/12/27 09:00:35;;;;;;;12.23;6.57;;;-1.00;99.90;;;;;;4973832;28;20054;-69
2020/12/27 09:03:04;;;;;;;10.35;6.63;;;-0.90;99.90;;;;;;4972801;28;20429;-65
2020/12/27 09:05:31;;;;;;;11.27;5.85;;;-0.90;99.90;;;;;;4973933;28;20489;-65
2020/12/27 09:07:58;;;;;;;9.95;6.20;;;-0.80;99.90;;;;;;4972972;28;20047;-65
2020/12/27 09:10:29;;;;;;;8.25;5.65;;;-0.70;99.90;;;;;;4973213;28;20055;-65
2020/12/27 09:13:07;;;;;;;9.18;5.72;;;-0.70;99.90;;;;;;4955506;28;20461;-64
2020/12/27 09:15:38;;;;;;;9.93;6.07;;;-0.70;99.90;;;;;;4970422;28;20057;-65
2020/12/27 09:18:06;;;;;;;8.60;5.72;;;-0.60;99.90;;;;;;4971999;28;20047;-64
2020/12/27 09:20:34;;;;;;;9.73;5.72;;;-0.50;99.90;;;;;;4970252;28;20065;-66
2020/12/27 09:23:10;;;;;;;8.82;5.45;;;-0.40;99.90;;;;;;4974160;28;20042;-66
2020/12/27 09:25:37;;;;;;;10.55;6.25;;;-0.30;99.90;;;;;;4973914;28;20049;-64
2020/12/27 09:28:13;;;;;;;9.05;5.72;;;-0.30;99.90;;;;;;4966006;28;20063;-66
2020/12/27 09:30:43;;;;;;;9.57;5.80;;;-0.20;99.90;;;;;;4968792;28;20158;-69
2020/12/27 09:33:10;;;;;;;11.63;6.63;;;-0.20;99.90;;;;;;4956196;28;20114;-68
2020/12/27 09:35:37;;;;;;;8.43;5.68;;;-0.20;99.90;;;;;;4972770;28;20047;-69
2020/12/27 09:38:17;;;;;;;9.40;6.65;;;-0.10;99.90;;;;;;4972326;28;20050;-69
2020/12/27 09:40:44;;;;;;;8.90;5.47;;;-0.10;99.90;;;;;;4971812;28;20057;-69
2020/12/27 09:43:10;;;;;;;8.15;5.40;;;0.00;99.90;;;;;;4972549;28;20486;-69
2020/12/27 09:45:40;;;;;;;10.18;6.00;;;0.10;99.90;;;;;;4972532;28;20129;-70
2020/12/27 09:48:07;;;;;;;10.00;5.50;;;0.10;99.90;;;;;;4972909;28;20051;-68
2020/12/27 09:50:35;;;;;;;9.95;5.45;;;0.20;99.90;;;;;;4972883;28;20053;-69
2020/12/27 09:53:05;;;;;;;10.13;6.47;;;0.30;99.90;;;;;;4969119;28;20464;-70
2020/12/27 09:55:34;;;;;;;20.45;9.30;;;0.30;99.90;;;;;;4955473;28;20043;-71
2020/12/27 09:58:01;;;;;;;17.58;9.25;;;0.40;99.90;;;;;;4970239;28;20063;-71
2020/12/27 10:00:27;;;;;;;9.00;5.47;;;0.60;99.90;;;;;;4971896;28;20153;-69
2020/12/27 10:02:54;;;;;;;8.23;5.20;;;0.60;99.90;;;;;;4970882;28;20473;-70
2020/12/27 10:05:20;;;;;;;9.55;5.78;;;0.60;99.90;;;;;;4972434;28;20054;-70
2020/12/27 10:07:46;;;;;;;10.55;6.40;;;0.80;99.90;;;;;;4970002;28;20046;-69
2020/12/27 10:10:13;;;;;;;9.25;6.13;;;0.80;99.90;;;;;;4970515;28;20051;-69
2020/12/27 10:12:40;;;;;;;8.48;6.18;;;1.00;99.90;;;;;;4968961;28;20088;-70
2020/12/27 10:15:11;;;;;;;8.73;6.03;;;1.10;99.90;;;;;;4968975;28;20565;-68
2020/12/27 10:17:38;;;;;;;9.45;6.43;;;1.20;99.90;;;;;;4951556;28;20058;-70
2020/12/27 10:20:10;;;;;;;7.53;5.35;;;1.30;99.90;;;;;;4969375;28;20058;-69
2020/12/27 10:22:37;;;;;;;10.02;5.47;;;1.30;99.90;;;;;;4966676;28;20081;-68
2020/12/27 10:25:05;;;;;;;9.15;6.22;;;1.30;99.90;;;;;;4969837;28;20125;-69
2020/12/27 10:27:32;;;;;;;10.45;6.18;;;1.30;99.90;;;;;;4969551;28;20049;-69
2020/12/27 10:30:00;;;;;;;12.13;6.50;;;1.30;99.90;;;;;;4968878;28;20099;-69
2020/12/27 10:32:26;;;;;;;9.70;6.22;;;1.40;99.90;;;;;;4952003;28;20390;-67
2020/12/27 10:34:53;;;;;;;8.30;6.10;;;1.30;99.90;;;;;;4951935;28;20047;-69
2020/12/27 10:37:19;;;;;;;9.68;6.10;;;1.30;99.90;;;;;;4951411;28;20051;-68
2020/12/27 10:39:46;;;;;;;8.80;6.13;;;1.30;99.90;;;;;;4968833;28;20054;-68
2020/12/27 10:42:13;;;;;;;9.70;6.38;;;1.20;99.90;;;;;;4952144;28;20129;-70
2020/12/27 10:44:40;;;;;;;11.95;6.70;;;1.10;99.90;;;;;;4967559;28;20090;-69
2020/12/27 10:47:08;;;;;;;10.15;6.20;;;1.10;99.90;;;;;;4968791;28;20054;-69
2020/12/27 10:49:34;;;;;;;12.60;7.57;;;1.20;99.90;;;;;;4969549;28;20047;-68
2020/12/27 10:52:01;;;;;;;8.30;5.82;;;1.30;99.90;;;;;;4968546;28;20046;-69
2020/12/27 10:54:27;;;;;;;12.25;6.07;;;1.40;99.90;;;;;;4967936;28;20062;-70
2020/12/27 10:56:54;;;;;;;6.93;5.40;;;1.60;99.90;;;;;;4970605;28;20054;-65
2020/12/27 10:59:20;;;;;;;8.75;6.00;;;1.70;99.90;;;;;;4968212;28;20051;-66
2020/12/27 11:01:53;;;;;;;9.00;6.53;;;1.70;99.90;;;;;;4968730;28;20057;-65
2020/12/27 11:04:19;;;;;;;6.72;5.50;;;1.70;99.90;;;;;;4965086;28;20051;-65
2020/12/27 11:06:46;;;;;;;7.40;5.70;;;1.80;99.90;;;;;;4968435;28;20138;-63
2020/12/27 11:09:12;;;;;;;6.25;5.45;;;1.80;99.90;;;;;;4968147;28;20055;-66
2020/12/27 11:11:39;;;;;;;6.63;5.35;;;1.90;99.90;;;;;;4968016;28;20146;-66
2020/12/27 11:14:07;;;;;;;6.70;5.53;;;2.00;99.90;;;;;;4961909;28;20572;-65
2020/12/27 11:16:34;;;;;;;7.57;5.93;;;2.10;99.90;;;;;;4968231;28;20054;-65
2020/12/27 11:19:01;;;;;;;7.75;5.82;;;2.20;99.90;;;;;;4968471;28;20053;-67
2020/12/27 11:21:28;;;;;;;9.02;6.05;;;2.30;99.90;;;;;;4967247;28;20050;-66
2020/12/27 11:23:55;;;;;;;8.18;6.30;;;2.30;99.90;;;;;;4968312;28;20058;-66
2020/12/27 11:26:21;;;;;;;6.10;5.38;;;2.30;99.90;;;;;;4960146;28;20162;-66
2020/12/27 11:28:48;;;;;;;6.00;5.32;;;2.40;99.90;;;;;;4963649;28;20047;-67
2020/12/27 11:31:18;;;;;;;6.25;5.65;;;2.40;99.90;;;;;;4971597;28;20050;-67
2020/12/27 11:33:48;;;;;;;6.60;5.60;;;2.40;99.90;;;;;;4971825;28;20062;-66
2020/12/27 11:36:16;;;;;;;6.75;5.50;;;2.40;99.90;;;;;;4970477;28;20050;-66
2020/12/27 11:38:43;;;;;;;6.40;5.50;;;2.40;99.90;;;;;;4971049;28;20497;-67
2020/12/27 11:41:12;;;;;;;8.18;5.93;;;2.50;99.90;;;;;;4970753;28;20077;-64
2020/12/27 11:43:39;;;;;;;7.63;5.72;;;2.50;99.90;;;;;;4970208;28;20066;-65
2020/12/27 11:46:06;;;;;;;6.72;5.75;;;2.50;99.90;;;;;;4971779;28;20663;-65
2020/12/27 11:48:32;;;;;;;9.43;6.43;;;2.40;99.90;;;;;;4970912;28;20062;-64
2020/12/27 11:51:03;;;;;;;8.13;6.53;;;2.50;99.90;;;;;;4962764;28;20047;-66
2020/12/27 11:53:59;;;;;;;8.02;6.18;;;2.40;99.90;;;;;;4956920;28;20106;-64
2020/12/27 11:56:36;;;;;;;6.80;5.57;;;2.40;99.90;;;;;;4970468;28;20054;-67
2020/12/27 11:59:07;;;;;;;6.45;5.55;;;2.50;99.90;;;;;;4955320;28;20067;-64
2020/12/27 12:01:44;;;;;;;8.80;5.88;;;2.50;99.90;;;;;;4967235;28;20046;-65
2020/12/27 12:04:21;;;;;;;8.18;5.18;;;2.40;99.90;;;;;;4940880;28;20055;-65
2020/12/27 12:06:57;;;;;;;6.47;5.65;;;2.40;99.90;;;;;;4967799;28;20077;-65
2020/12/27 12:09:34;;;;;;;8.32;5.43;;;2.40;99.90;;;;;;4953020;28;20137;-64
2020/12/27 12:12:14;;;;;;;7.85;5.57;;;2.30;99.90;;;;;;4951571;28;20107;-64
2020/12/27 12:14:45;;;;;;;8.05;5.50;;;2.30;99.90;;;;;;4956507;28;20062;-64
2020/12/27 12:17:19;;;;;;;7.70;6.40;;;2.30;99.90;;;;;;4955379;28;20058;-64
2020/12/27 12:19:50;;;;;;;9.80;6.00;;;2.20;99.90;;;;;;4944613;28;20058;-65
2020/12/27 12:22:28;;;;;;;9.32;6.22;;;2.20;99.90;;;;;;4973366;28;20057;-65
2020/12/27 12:25:03;;;;;;;9.48;6.07;;;2.30;99.90;;;;;;4957555;28;20051;-65
2020/12/27 12:27:34;;;;;;;8.35;6.70;;;2.30;99.90;;;;;;4954486;28;20046;-65
2020/12/27 12:30:04;;;;;;;8.45;6.40;;;2.30;99.90;;;;;;4971926;28;20066;-65
2020/12/27 12:32:31;;;;;;;9.13;6.50;;;2.30;99.90;;;;;;4954804;28;20058;-63
2020/12/27 12:34:59;;;;;;;6.80;5.53;;;2.30;99.90;;;;;;4957374;28;20066;-63
2020/12/27 12:37:25;;;;;;;9.40;6.35;;;2.20;99.90;;;;;;4972206;28;20062;-66
2020/12/27 12:39:53;;;;;;;7.85;5.93;;;2.20;99.90;;;;;;4955331;28;20046;-66
2020/12/27 12:42:42;;;;;;;8.00;6.25;;;2.30;99.90;;;;;;4966176;28;20074;-67
2020/12/27 12:45:42;;;;;;;7.82;6.55;;;2.30;99.90;;;;;;4952609;28;20054;-63
2020/12/27 12:48:12;;;;;;;8.82;6.65;;;2.30;99.90;;;;;;4972466;28;20051;-67
2020/12/27 12:50:39;;;;;;;8.68;6.20;;;2.30;99.90;;;;;;4952204;29;20061;-66
2020/12/27 12:53:06;;;;;;;7.80;6.82;;;2.20;99.90;;;;;;4968591;28;20481;-64
2020/12/27 12:55:33;;;;;;;7.72;6.45;;;2.20;99.90;;;;;;4954600;28;20058;-63